createdAt,value
2019-04-23T00:01:35.368Z,7.73
2019-04-23T00:04:13.314Z,7.40
2019-04-23T00:06:59.420Z,7.57
2019-04-23T00:09:40.969Z,6.87
2019-04-23T00:12:30.140Z,7.90
2019-04-23T00:15:06.864Z,7.37
2019-04-23T00:17:48.849Z,6.90
2019-04-23T00:20:25.746Z,7.67
2019-04-23T00:23:10.669Z,7.07
2019-04-23T00:26:03.957Z,7.43
2019-04-23T00:28:45.583Z,19.40
2019-04-23T00:31:31.697Z,19.17
2019-04-23T00:34:10.075Z,9.50
2019-04-23T00:36:47.674Z,8.13
2019-04-23T00:39:37.620Z,9.07
2019-04-23T00:42:15.477Z,6.77
2019-04-23T00:44:56.258Z,8.13
2019-04-23T00:50:38.045Z,6.47
2019-04-23T00:52:55.535Z,7.57
2019-04-23T00:55:47.677Z,8.07
2019-04-23T00:58:41.526Z,6.80
2019-04-23T01:01:33.069Z,7.43
2019-04-23T01:04:17.354Z,12.17
2019-04-23T01:06:40.826Z,9.77
2019-04-23T01:09:26.072Z,7.70
2019-04-23T01:12:19.012Z,8.13
2019-04-23T01:15:04.721Z,7.70
2019-04-23T01:17:54.102Z,7.33
2019-04-23T01:20:52.784Z,7.77
2019-04-23T01:23:32.269Z,10.17
2019-04-23T01:26:26.347Z,7.73
2019-04-23T01:29:06.951Z,7.97
2019-04-23T01:31:57.275Z,8.43
2019-04-23T01:34:56.233Z,8.07
2019-04-23T01:37:30.303Z,9.77
2019-04-23T01:40:11.798Z,7.87
2019-04-23T01:45:30.754Z,7.13
2019-04-23T01:48:32.609Z,9.00
2019-04-23T01:51:02.548Z,8.70
2019-04-23T01:53:48.157Z,9.00
2019-04-23T01:58:59.235Z,14.13
2019-04-23T02:01:52.008Z,9.50
2019-04-23T02:04:28.874Z,9.30
2019-04-23T02:07:27.653Z,8.17
2019-04-23T02:10:08.330Z,8.80
2019-04-23T02:12:33.309Z,9.90
2019-04-23T02:15:13.726Z,11.13
2019-04-23T02:18:06.557Z,9.80
2019-04-23T02:20:44.318Z,9.13
2019-04-23T02:23:44.711Z,8.90
2019-04-23T02:26:25.726Z,15.40
2019-04-23T02:31:57.634Z,11.23
2019-04-23T02:37:19.350Z,11.70
2019-04-23T02:40:08.828Z,10.10
2019-04-23T02:44:53.788Z,8.57
2019-04-23T02:48:10.877Z,11.60
2019-04-23T02:50:32.919Z,9.40
2019-04-23T02:52:48.995Z,10.53
2019-04-23T02:55:44.895Z,10.63
2019-04-23T02:58:10.996Z,9.87
2019-04-23T03:01:14.995Z,10.37
2019-04-23T03:03:37.938Z,10.20
2019-04-23T03:06:07.362Z,10.20
2019-04-23T03:20:15.726Z,10.50
2019-04-23T03:23:04.930Z,9.57
2019-04-23T03:26:09.100Z,11.37
2019-04-23T03:28:51.806Z,14.03
2019-04-23T03:35:24.081Z,10.10
2019-04-23T03:39:30.134Z,11.77
2019-04-23T03:42:38.917Z,10.77
2019-04-23T03:47:52.093Z,13.20
2019-04-23T03:50:28.252Z,13.70
2019-04-23T03:53:40.760Z,11.37
2019-04-23T03:56:05.853Z,14.83
2019-04-23T03:58:38.720Z,10.97
2019-04-23T04:01:23.580Z,10.97
2019-04-23T04:12:00.967Z,12.53
2019-04-23T04:14:42.220Z,12.00
2019-04-23T04:22:50.062Z,11.33
2019-04-23T04:25:06.989Z,11.57
2019-04-23T04:27:58.152Z,11.77
2019-04-23T04:30:20.777Z,16.00
2019-04-23T04:33:36.871Z,14.60
2019-04-23T04:36:10.296Z,12.73
2019-04-23T04:41:13.965Z,11.77
2019-04-23T04:44:02.458Z,12.40
2019-04-23T04:46:30.912Z,13.43
2019-04-23T04:52:09.073Z,12.53
2019-04-23T04:54:21.982Z,11.87
2019-04-23T04:57:15.033Z,12.60
2019-04-23T04:59:57.100Z,13.90
2019-04-23T05:05:37.999Z,11.40
2019-04-23T05:16:01.856Z,15.43
2019-04-23T05:18:47.177Z,12.97
2019-04-23T05:21:20.225Z,13.30
2019-04-23T05:24:02.887Z,13.97
2019-04-23T05:26:27.468Z,13.53
2019-04-23T05:29:23.322Z,12.33
2019-04-23T05:31:46.577Z,12.50
2019-04-23T05:34:42.905Z,12.30
2019-04-23T05:37:45.878Z,14.27
2019-04-23T05:40:22.440Z,19.47
2019-04-23T05:42:37.921Z,18.57
2019-04-23T05:45:21.655Z,20.80
2019-04-23T05:48:07.926Z,24.37
2019-04-23T05:51:23.742Z,14.50
2019-04-23T05:53:39.628Z,14.40
2019-04-23T05:56:33.770Z,19.67
2019-04-23T05:59:29.936Z,19.60
2019-04-23T06:02:19.834Z,13.93
2019-04-23T06:05:19.408Z,13.97
2019-04-23T06:08:12.872Z,15.90
2019-04-23T06:10:47.509Z,17.50
2019-04-23T06:13:41.057Z,35.77
2019-04-23T06:16:13.733Z,21.80
2019-04-23T06:19:13.058Z,22.27
2019-04-23T06:22:04.444Z,16.80
2019-04-23T06:24:41.153Z,15.37
2019-04-23T06:27:18.236Z,13.90
2019-04-23T06:29:57.424Z,14.70
2019-04-23T06:32:53.602Z,14.00
2019-04-23T06:35:47.064Z,14.37
2019-04-23T06:38:45.010Z,17.63
2019-04-23T06:44:14.366Z,16.63
2019-04-23T06:55:18.471Z,14.70
2019-04-23T06:57:52.144Z,14.40
2019-04-23T07:00:27.257Z,21.30
2019-04-23T07:03:08.831Z,16.63
2019-04-23T07:06:11.778Z,13.20
2019-04-23T07:09:04.461Z,17.40
2019-04-23T07:11:23.296Z,13.93
2019-04-23T07:14:02.468Z,15.13
2019-04-23T07:16:28.501Z,25.67
2019-04-23T07:21:39.126Z,15.50
2019-04-23T07:24:21.542Z,19.40
2019-04-23T07:26:45.382Z,16.83
2019-04-23T07:29:30.929Z,16.43
2019-04-23T07:32:05.635Z,21.40
2019-04-23T07:34:49.493Z,15.77
2019-04-23T07:37:17.351Z,18.00
2019-04-23T07:43:28.283Z,16.10
2019-04-23T07:46:41.950Z,19.60
2019-04-23T07:49:11.458Z,16.87
2019-04-23T07:52:08.665Z,14.87
2019-04-23T07:54:51.263Z,15.73
2019-04-23T07:57:18.641Z,16.67
2019-04-23T08:00:00.902Z,20.20
2019-04-23T08:02:57.896Z,14.77
2019-04-23T08:05:37.695Z,20.20
2019-04-23T08:08:24.531Z,19.40
2019-04-23T08:11:23.510Z,17.70
2019-04-23T08:13:55.554Z,13.90
2019-04-23T08:16:32.907Z,13.30
2019-04-23T08:18:58.971Z,15.43
2019-04-23T08:21:57.883Z,16.90
2019-04-23T08:25:08.468Z,20.40
2019-04-23T08:27:48.621Z,13.40
2019-04-23T08:30:50.244Z,22.07
2019-04-23T08:33:31.622Z,17.17
2019-04-23T08:36:12.185Z,21.23
2019-04-23T08:39:08.239Z,15.40
2019-04-23T08:45:00.361Z,16.90
2019-04-23T08:47:36.492Z,12.93
2019-04-23T08:50:17.122Z,23.47
2019-04-23T08:53:21.492Z,20.93
2019-04-23T08:55:49.890Z,16.47
2019-04-23T08:58:29.221Z,16.30
2019-04-23T09:01:12.354Z,15.93
2019-04-23T09:03:45.851Z,17.50
2019-04-23T09:06:29.729Z,18.83
2019-04-23T09:09:13.308Z,17.00
2019-04-23T09:12:03.319Z,20.60
2019-04-23T09:15:01.815Z,17.57
2019-04-23T09:20:18.023Z,16.60
2019-04-23T09:22:59.673Z,21.37
2019-04-23T09:28:46.329Z,14.57
2019-04-23T09:31:41.692Z,19.20
2019-04-23T09:34:18.568Z,17.97
2019-04-23T09:37:18.835Z,20.50
2019-04-23T09:40:28.523Z,18.90
2019-04-23T09:43:19.776Z,22.83
2019-04-23T09:46:06.392Z,20.63
2019-04-23T09:48:54.692Z,15.43
2019-04-23T09:51:27.346Z,16.03
2019-04-23T09:54:02.953Z,16.33
2019-04-23T09:59:34.224Z,15.47
2019-04-23T10:01:54.348Z,18.07
2019-04-23T10:04:28.466Z,18.00
2019-04-23T10:07:08.001Z,19.00
2019-04-23T10:09:49.812Z,15.33
2019-04-23T10:12:26.281Z,23.97
2019-04-23T10:15:10.928Z,20.07
2019-04-23T10:17:42.537Z,22.03
2019-04-23T10:20:16.395Z,19.70
2019-04-23T10:22:52.615Z,18.87
2019-04-23T10:25:43.727Z,16.00
2019-04-23T10:28:47.695Z,14.30
2019-04-23T10:31:27.052Z,14.40
2019-04-23T10:34:12.711Z,13.73
2019-04-23T10:36:47.387Z,14.53
2019-04-23T10:39:32.421Z,15.73
2019-04-23T10:42:05.755Z,23.13
2019-04-23T10:45:12.276Z,17.23
2019-04-23T10:51:08.910Z,15.80
2019-04-23T10:53:51.511Z,20.37
2019-04-23T10:57:03.974Z,18.60
2019-04-23T11:05:35.956Z,22.53
2019-04-23T11:08:03.525Z,18.77
2019-04-23T11:10:47.076Z,18.90
2019-04-23T11:13:25.254Z,23.30
2019-04-23T11:16:12.681Z,18.07
2019-04-23T11:18:55.329Z,24.27
2019-04-23T11:21:21.894Z,23.73
2019-04-23T11:23:49.748Z,16.80
2019-04-23T11:29:15.522Z,18.43
2019-04-23T11:32:05.874Z,25.60
2019-04-23T11:34:56.983Z,23.50
2019-04-23T11:37:25.080Z,18.73
2019-04-23T11:39:58.134Z,19.23
2019-04-23T11:45:06.728Z,22.90
2019-04-23T11:48:07.412Z,24.03
2019-04-23T11:50:25.663Z,19.33
2019-04-23T11:53:17.869Z,23.73
2019-04-23T12:01:26.126Z,22.63
2019-04-23T12:04:51.719Z,20.10
2019-04-23T12:06:43.626Z,20.73
2019-04-23T12:09:58.278Z,22.77
2019-04-23T12:12:29.779Z,19.27
2019-04-23T12:15:18.083Z,21.43
2019-04-23T12:17:56.000Z,22.93
2019-04-23T12:20:33.109Z,24.27
2019-04-23T12:23:25.459Z,24.10
2019-04-23T12:26:14.849Z,19.57
2019-04-23T12:28:31.810Z,23.50
2019-04-23T12:31:10.095Z,17.77
2019-04-23T12:33:59.147Z,18.03
2019-04-23T12:36:45.556Z,24.13
2019-04-23T12:39:32.951Z,32.13
2019-04-23T12:42:19.840Z,26.33
2019-04-23T12:44:44.189Z,31.53
2019-04-23T12:47:37.947Z,30.70
2019-04-23T12:50:38.332Z,43.27
2019-04-23T12:52:51.210Z,23.30
2019-04-23T12:58:26.887Z,21.87
2019-04-23T13:00:58.432Z,24.77
2019-04-23T13:03:49.200Z,30.60
2019-04-23T13:06:20.730Z,27.90
2019-04-23T13:09:02.724Z,32.20
2019-04-23T13:11:45.604Z,22.40
2019-04-23T13:14:29.593Z,22.10
2019-04-23T13:17:25.226Z,34.20
2019-04-23T13:25:34.557Z,22.90
2019-04-23T13:28:17.192Z,25.50
2019-04-23T13:36:29.864Z,22.63
2019-04-23T13:38:56.648Z,24.33
2019-04-23T13:41:33.056Z,19.23
2019-04-23T13:44:13.272Z,23.07
2019-04-23T13:47:10.892Z,21.20
2019-04-23T13:49:53.246Z,28.27
2019-04-23T13:52:47.844Z,30.93
2019-04-23T13:55:09.441Z,39.63
2019-04-23T14:06:18.035Z,29.13
2019-04-23T14:09:12.042Z,27.03
2019-04-23T14:11:53.235Z,19.60
2019-04-23T14:17:35.699Z,19.73
2019-04-23T14:20:15.296Z,20.53
2019-04-23T14:26:05.249Z,18.40
2019-04-23T14:31:00.646Z,18.50
2019-04-23T14:33:40.120Z,17.80
2019-04-23T14:36:01.239Z,17.00
2019-04-23T14:38:43.975Z,21.13
2019-04-23T14:41:23.638Z,16.03
2019-04-23T14:49:44.809Z,17.97
2019-04-23T14:52:27.394Z,18.53
2019-04-23T14:57:45.766Z,23.00
2019-04-23T15:00:17.997Z,20.80
2019-04-23T15:03:08.826Z,29.90
2019-04-23T15:05:58.053Z,19.67
2019-04-23T15:11:22.957Z,20.07
2019-04-23T15:13:52.153Z,18.77
2019-04-23T15:16:31.785Z,21.67
2019-04-23T15:19:37.297Z,21.40
2019-04-23T15:22:12.161Z,17.07
2019-04-23T15:24:54.630Z,16.20
2019-04-23T15:29:47.601Z,17.73
2019-04-23T15:32:34.376Z,18.47
2019-04-23T15:40:41.746Z,18.00
2019-04-23T15:43:17.293Z,18.37
2019-04-23T15:46:00.676Z,18.50
2019-04-23T15:48:24.091Z,15.30
2019-04-23T15:51:11.826Z,24.27
2019-04-23T15:53:46.512Z,20.00
2019-04-23T15:56:52.337Z,27.80
2019-04-23T15:59:22.242Z,20.40
2019-04-23T16:01:39.450Z,17.50
2019-04-23T16:04:01.399Z,16.03
2019-04-23T16:06:39.446Z,17.53
2019-04-23T16:10:04.207Z,14.60
2019-04-23T16:12:34.512Z,21.70
2019-04-23T16:15:22.032Z,15.97
2019-04-23T16:18:35.164Z,19.60
2019-04-23T16:21:26.632Z,15.50
2019-04-23T16:23:42.234Z,15.77
2019-04-23T16:26:32.639Z,15.27
2019-04-23T16:31:54.676Z,14.00
2019-04-23T16:34:33.254Z,15.80
2019-04-23T16:37:39.821Z,15.67
2019-04-23T16:40:28.699Z,15.67
2019-04-23T16:43:19.874Z,17.60
2019-04-23T16:46:02.500Z,16.47
2019-04-23T16:51:18.114Z,15.97
2019-04-23T16:54:03.069Z,17.60
2019-04-23T16:56:56.036Z,13.07
2019-04-23T16:59:34.863Z,17.77
2019-04-23T17:02:18.401Z,14.30
2019-04-23T17:04:54.445Z,12.63
2019-04-23T17:07:25.627Z,13.90
2019-04-23T17:12:48.476Z,12.73
2019-04-23T17:17:54.967Z,12.10
2019-04-23T17:23:22.207Z,19.50
2019-04-23T17:25:49.035Z,16.20
2019-04-23T17:28:21.665Z,14.07
2019-04-23T17:31:27.399Z,13.07
2019-04-23T17:33:56.429Z,12.23
2019-04-23T17:36:38.273Z,12.00
2019-04-23T17:39:31.120Z,11.60
2019-04-23T17:42:32.811Z,13.30
2019-04-23T17:45:30.910Z,12.93
2019-04-23T17:50:56.922Z,12.73
2019-04-23T17:53:33.283Z,12.30
2019-04-23T17:59:14.076Z,12.40
2019-04-23T18:02:32.919Z,13.73
2019-04-23T18:04:45.016Z,15.23
2019-04-23T18:07:19.365Z,12.60
2019-04-23T18:09:57.053Z,13.30
2019-04-23T18:12:43.932Z,12.77
2019-04-23T18:18:02.323Z,13.43
2019-04-23T18:21:03.586Z,12.93
2019-04-23T18:24:08.965Z,13.23
2019-04-23T18:26:46.059Z,13.57
2019-04-23T18:29:47.368Z,14.20
2019-04-23T18:32:33.556Z,13.50
2019-04-23T18:38:00.568Z,14.07
2019-04-23T18:51:10.736Z,13.53
2019-04-23T18:54:10.111Z,12.77
2019-04-23T19:02:51.834Z,22.10
2019-04-23T19:05:28.259Z,41.20
2019-04-23T19:08:55.041Z,23.87
2019-04-23T19:11:44.539Z,15.97
2019-04-23T19:14:26.268Z,13.87
2019-04-23T19:19:35.105Z,16.10
2019-04-23T19:22:19.063Z,13.93
2019-04-23T19:24:46.754Z,14.03
2019-04-23T19:27:25.809Z,14.33
2019-04-23T19:30:20.592Z,16.63
2019-04-23T19:32:57.415Z,13.83
2019-04-23T19:35:57.583Z,14.37
2019-04-23T19:38:13.625Z,15.47
2019-04-23T19:40:51.897Z,17.10
2019-04-23T19:43:19.428Z,13.67
2019-04-23T19:48:48.543Z,13.77
2019-04-23T19:51:41.466Z,15.80
2019-04-23T19:54:34.318Z,14.77
2019-04-23T19:57:19.915Z,18.57
2019-04-23T19:59:56.009Z,16.27
2019-04-23T20:02:55.455Z,13.70
2019-04-23T20:05:05.592Z,15.27
2019-04-23T20:07:56.101Z,17.10
2019-04-23T20:10:28.537Z,17.43
2019-04-23T20:12:59.135Z,15.20
2019-04-23T20:15:59.727Z,17.63
2019-04-23T20:18:35.383Z,16.33
2019-04-23T20:21:21.202Z,16.50
2019-04-23T20:24:28.479Z,17.33
2019-04-23T20:27:06.134Z,19.83
2019-04-23T20:33:48.628Z,18.63
2019-04-23T20:36:12.147Z,23.80
2019-04-23T20:39:02.605Z,23.30
2019-04-23T20:41:54.617Z,55.57
2019-04-23T20:44:47.269Z,24.77
2019-04-23T20:47:22.739Z,34.53
2019-04-23T20:50:10.565Z,21.63
2019-04-23T20:52:54.667Z,21.33
2019-04-23T20:55:47.557Z,18.77
2019-04-23T20:58:48.252Z,21.10
2019-04-23T21:01:55.644Z,17.93
2019-04-23T21:04:18.830Z,19.80
2019-04-23T21:07:07.207Z,14.73
2019-04-23T21:09:52.646Z,15.27
2019-04-23T21:12:29.644Z,20.67
2019-04-23T21:15:08.637Z,15.60
2019-04-23T21:17:46.831Z,15.40
2019-04-23T21:20:26.610Z,18.50
2019-04-23T21:25:47.485Z,25.77
2019-04-23T21:28:44.322Z,17.37
2019-04-23T21:31:19.700Z,14.13
2019-04-23T21:34:32.094Z,17.67
2019-04-23T21:37:43.403Z,17.53
2019-04-23T21:40:56.536Z,24.20
2019-04-23T21:43:16.445Z,13.47
2019-04-23T21:46:13.300Z,18.13
2019-04-23T21:49:01.857Z,24.43
2019-04-23T21:51:45.961Z,21.83
2019-04-23T21:59:07.311Z,30.23
2019-04-23T22:01:46.003Z,41.10
2019-04-23T22:04:24.179Z,16.83
2019-04-23T22:06:52.850Z,21.47
2019-04-23T22:09:51.849Z,16.60
2019-04-23T22:12:41.332Z,13.30
2019-04-23T22:15:20.261Z,23.63
2019-04-23T22:17:45.979Z,13.50
2019-04-23T22:20:27.788Z,16.10
2019-04-23T22:23:03.717Z,16.33
2019-04-23T22:25:46.999Z,21.50
2019-04-23T22:28:27.209Z,19.57
2019-04-23T22:31:12.488Z,18.03
2019-04-23T22:34:06.234Z,29.53
2019-04-23T22:36:39.387Z,20.47
2019-04-23T22:39:16.040Z,22.77
2019-04-23T22:41:55.858Z,14.80
2019-04-23T22:44:30.977Z,16.83
2019-04-23T22:47:03.252Z,24.57
2019-04-23T22:49:44.037Z,18.70
2019-04-23T22:52:42.164Z,16.80
2019-04-23T22:57:56.384Z,16.20
2019-04-23T23:00:24.295Z,19.30
2019-04-23T23:03:23.909Z,20.57
2019-04-23T23:06:10.647Z,17.83
2019-04-23T23:08:42.179Z,20.87
2019-04-23T23:11:14.137Z,24.70
2019-04-23T23:16:48.516Z,17.90
2019-04-23T23:22:06.404Z,18.10
2019-04-23T23:24:38.562Z,21.50
2019-04-23T23:27:25.145Z,16.87
2019-04-23T23:30:05.264Z,17.00
2019-04-23T23:38:08.269Z,17.93
2019-04-23T23:40:43.810Z,18.57
2019-04-23T23:43:23.074Z,20.20
2019-04-23T23:45:57.331Z,13.97
2019-04-23T23:48:23.933Z,14.20
2019-04-23T23:51:17.833Z,25.20
2019-04-23T23:53:56.916Z,34.97
2019-04-23T23:57:01.802Z,26.23
2019-04-23T23:59:12.811Z,24.67
